sensor_id;sensor_type;location;lat;lon;timestamp;temperature;humidity
15103;DHT22;7652;53.584;9.998;2023-06-10T00:02:44;16.10;99.90
15103;DHT22;7652;53.584;9.998;2023-06-10T00:06:06;16.10;99.90
15103;DHT22;7652;53.584;9.998;2023-06-10T00:09:27;16.00;99.90
15103;DHT22;7652;53.584;9.998;2023-06-10T00:12:49;16.00;99.90
15103;DHT22;7652;53.584;9.998;2023-06-10T00:16:13;15.90;99.90
15103;DHT22;7652;53.584;9.998;2023-06-10T00:19:34;15.90;99.90
15103;DHT22;7652;53.584;9.998;2023-06-10T00:22:58;15.90;99.90
15103;DHT22;7652;53.584;9.998;2023-06-10T00:26:22;15.80;99.90
15103;DHT22;7652;53.584;9.998;2023-06-10T00:29:43;15.70;99.90
15103;DHT22;7652;53.584;9.998;2023-06-10T00:33:06;15.70;99.90
15103;DHT22;7652;53.584;9.998;2023-06-10T00:36:28;15.70;99.90
15103;DHT22;7652;53.584;9.998;2023-06-10T00:39:50;15.60;99.90
15103;DHT22;7652;53.584;9.998;2023-06-10T00:43:11;15.60;99.90
15103;DHT22;7652;53.584;9.998;2023-06-10T00:46:34;15.60;99.90
15103;DHT22;7652;53.584;9.998;2023-06-10T00:49:56;15.60;99.90
15103;DHT22;7652;53.584;9.998;2023-06-10T00:53:18;15.50;99.90
15103;DHT22;7652;53.584;9.998;2023-06-10T00:56:41;15.40;99.90
15103;DHT22;7652;53.584;9.998;2023-06-10T01:00:04;15.40;99.90
15103;DHT22;7652;53.584;9.998;2023-06-10T01:03:28;15.40;99.90
15103;DHT22;7652;53.584;9.998;2023-06-10T01:07:00;15.40;99.90
15103;DHT22;7652;53.584;9.998;2023-06-10T01:10:31;15.20;99.90
15103;DHT22;7652;53.584;9.998;2023-06-10T01:13:55;15.20;99.90
15103;DHT22;7652;53.584;9.998;2023-06-10T01:17:18;15.20;99.90
15103;DHT22;7652;53.584;9.998;2023-06-10T01:20:41;15.10;99.90
15103;DHT22;7652;53.584;9.998;2023-06-10T01:24:05;15.10;99.90
15103;DHT22;7652;53.584;9.998;2023-06-10T01:27:32;15.00;99.90
15103;DHT22;7652;53.584;9.998;2023-06-10T01:31:02;14.90;99.90
15103;DHT22;7652;53.584;9.998;2023-06-10T01:34:28;14.90;99.90
15103;DHT22;7652;53.584;9.998;2023-06-10T01:37:53;14.90;99.90
15103;DHT22;7652;53.584;9.998;2023-06-10T01:41:17;14.90;99.90
15103;DHT22;7652;53.584;9.998;2023-06-10T01:44:40;14.80;99.90
15103;DHT22;7652;53.584;9.998;2023-06-10T01:48:02;14.80;99.90
15103;DHT22;7652;53.584;9.998;2023-06-10T01:51:23;14.80;99.90
15103;DHT22;7652;53.584;9.998;2023-06-10T01:54:45;14.80;99.90
15103;DHT22;7652;53.584;9.998;2023-06-10T01:58:07;14.80;99.90
15103;DHT22;7652;53.584;9.998;2023-06-10T02:01:29;14.70;99.90
15103;DHT22;7652;53.584;9.998;2023-06-10T02:04:51;14.70;99.90
15103;DHT22;7652;53.584;9.998;2023-06-10T02:08:12;14.70;99.90
15103;DHT22;7652;53.584;9.998;2023-06-10T02:11:33;14.60;99.90
15103;DHT22;7652;53.584;9.998;2023-06-10T02:14:56;14.60;99.90
15103;DHT22;7652;53.584;9.998;2023-06-10T02:18:17;14.70;99.90
15103;DHT22;7652;53.584;9.998;2023-06-10T02:21:40;14.50;99.90
15103;DHT22;7652;53.584;9.998;2023-06-10T02:25:02;14.50;99.90
15103;DHT22;7652;53.584;9.998;2023-06-10T02:28:24;14.50;99.90
15103;DHT22;7652;53.584;9.998;2023-06-10T02:31:47;14.50;99.90
15103;DHT22;7652;53.584;9.998;2023-06-10T02:35:08;14.50;99.90
15103;DHT22;7652;53.584;9.998;2023-06-10T02:38:32;14.50;99.90
15103;DHT22;7652;53.584;9.998;2023-06-10T02:41:53;14.40;99.90
15103;DHT22;7652;53.584;9.998;2023-06-10T02:45:15;14.40;99.90
15103;DHT22;7652;53.584;9.998;2023-06-10T02:48:42;14.40;99.90
15103;DHT22;7652;53.584;9.998;2023-06-10T02:52:04;14.40;99.90
15103;DHT22;7652;53.584;9.998;2023-06-10T02:55:28;14.40;99.90
15103;DHT22;7652;53.584;9.998;2023-06-10T02:58:49;14.40;99.90
15103;DHT22;7652;53.584;9.998;2023-06-10T03:02:12;14.30;99.90
15103;DHT22;7652;53.584;9.998;2023-06-10T03:05:36;14.30;99.90
15103;DHT22;7652;53.584;9.998;2023-06-10T03:08:57;14.40;99.90
15103;DHT22;7652;53.584;9.998;2023-06-10T03:12:19;14.40;99.90
15103;DHT22;7652;53.584;9.998;2023-06-10T03:15:40;14.30;99.90
15103;DHT22;7652;53.584;9.998;2023-06-10T03:19:02;14.40;99.90
15103;DHT22;7652;53.584;9.998;2023-06-10T03:22:25;14.40;99.90
15103;DHT22;7652;53.584;9.998;2023-06-10T03:25:47;14.40;99.90
15103;DHT22;7652;53.584;9.998;2023-06-10T03:29:08;14.40;99.90
15103;DHT22;7652;53.584;9.998;2023-06-10T03:32:30;14.40;99.90
15103;DHT22;7652;53.584;9.998;2023-06-10T03:35:51;14.30;99.90
15103;DHT22;7652;53.584;9.998;2023-06-10T03:39:14;14.30;99.90
15103;DHT22;7652;53.584;9.998;2023-06-10T03:42:36;14.30;99.90
15103;DHT22;7652;53.584;9.998;2023-06-10T03:45:57;14.30;99.90
15103;DHT22;7652;53.584;9.998;2023-06-10T03:49:19;14.30;99.90
15103;DHT22;7652;53.584;9.998;2023-06-10T03:52:41;14.30;99.90
15103;DHT22;7652;53.584;9.998;2023-06-10T03:56:04;14.30;99.90
15103;DHT22;7652;53.584;9.998;2023-06-10T03:59:25;14.40;99.90
15103;DHT22;7652;53.584;9.998;2023-06-10T04:02:47;14.50;99.90
15103;DHT22;7652;53.584;9.998;2023-06-10T04:06:10;14.60;99.90
15103;DHT22;7652;53.584;9.998;2023-06-10T04:09:31;14.60;99.90
15103;DHT22;7652;53.584;9.998;2023-06-10T04:12:54;14.60;99.90
15103;DHT22;7652;53.584;9.998;2023-06-10T04:16:15;14.70;99.90
15103;DHT22;7652;53.584;9.998;2023-06-10T04:19:37;14.70;99.90
15103;DHT22;7652;53.584;9.998;2023-06-10T04:22:58;14.70;99.90
15103;DHT22;7652;53.584;9.998;2023-06-10T04:26:19;14.90;99.90
15103;DHT22;7652;53.584;9.998;2023-06-10T04:29:43;14.90;99.90
15103;DHT22;7652;53.584;9.998;2023-06-10T04:33:05;14.90;99.90
15103;DHT22;7652;53.584;9.998;2023-06-10T04:36:29;15.00;99.90
15103;DHT22;7652;53.584;9.998;2023-06-10T04:39:51;15.00;99.90
15103;DHT22;7652;53.584;9.998;2023-06-10T04:43:12;15.10;99.90
15103;DHT22;7652;53.584;9.998;2023-06-10T04:46:35;15.20;99.90
15103;DHT22;7652;53.584;9.998;2023-06-10T04:49:57;15.20;99.90
15103;DHT22;7652;53.584;9.998;2023-06-10T04:53:18;15.30;99.90
15103;DHT22;7652;53.584;9.998;2023-06-10T04:56:40;15.30;99.90
15103;DHT22;7652;53.584;9.998;2023-06-10T05:00:02;15.40;99.90
15103;DHT22;7652;53.584;9.998;2023-06-10T05:03:27;15.50;99.90
15103;DHT22;7652;53.584;9.998;2023-06-10T05:06:49;15.60;99.90
15103;DHT22;7652;53.584;9.998;2023-06-10T05:10:10;15.70;99.90
15103;DHT22;7652;53.584;9.998;2023-06-10T05:13:32;15.80;99.90
15103;DHT22;7652;53.584;9.998;2023-06-10T05:16:54;15.80;99.90
15103;DHT22;7652;53.584;9.998;2023-06-10T05:20:16;15.90;99.90
15103;DHT22;7652;53.584;9.998;2023-06-10T05:23:38;15.90;99.90
15103;DHT22;7652;53.584;9.998;2023-06-10T05:27:00;16.10;99.90
15103;DHT22;7652;53.584;9.998;2023-06-10T05:30:23;16.20;99.90
15103;DHT22;7652;53.584;9.998;2023-06-10T05:33:45;16.30;99.90
15103;DHT22;7652;53.584;9.998;2023-06-10T05:37:08;16.60;99.90
15103;DHT22;7652;53.584;9.998;2023-06-10T05:40:30;16.60;99.90
15103;DHT22;7652;53.584;9.998;2023-06-10T05:43:51;17.10;99.90
15103;DHT22;7652;53.584;9.998;2023-06-10T05:47:12;17.70;99.90
15103;DHT22;7652;53.584;9.998;2023-06-10T05:50:34;18.10;99.90
15103;DHT22;7652;53.584;9.998;2023-06-10T05:54:00;18.30;99.90
15103;DHT22;7652;53.584;9.998;2023-06-10T05:57:22;18.50;99.90
15103;DHT22;7652;53.584;9.998;2023-06-10T06:00:43;18.80;99.90
15103;DHT22;7652;53.584;9.998;2023-06-10T06:04:05;19.10;99.90
15103;DHT22;7652;53.584;9.998;2023-06-10T06:07:27;19.60;99.90
15103;DHT22;7652;53.584;9.998;2023-06-10T06:10:50;20.00;99.90
15103;DHT22;7652;53.584;9.998;2023-06-10T06:14:11;20.20;99.90
15103;DHT22;7652;53.584;9.998;2023-06-10T06:17:33;20.30;99.90
15103;DHT22;7652;53.584;9.998;2023-06-10T06:20:54;20.70;99.90
15103;DHT22;7652;53.584;9.998;2023-06-10T06:24:16;21.30;99.90
15103;DHT22;7652;53.584;9.998;2023-06-10T06:27:39;21.70;99.90
15103;DHT22;7652;53.584;9.998;2023-06-10T06:31:00;22.40;99.90
15103;DHT22;7652;53.584;9.998;2023-06-10T06:34:22;22.70;99.90
15103;DHT22;7652;53.584;9.998;2023-06-10T06:37:43;22.90;99.90
15103;DHT22;7652;53.584;9.998;2023-06-10T06:41:05;23.30;99.90
15103;DHT22;7652;53.584;9.998;2023-06-10T06:44:28;23.50;99.90
15103;DHT22;7652;53.584;9.998;2023-06-10T06:47:49;23.60;99.90
15103;DHT22;7652;53.584;9.998;2023-06-10T06:51:12;23.80;99.90
15103;DHT22;7652;53.584;9.998;2023-06-10T06:54:33;23.40;99.90
15103;DHT22;7652;53.584;9.998;2023-06-10T06:57:55;23.10;99.90
15103;DHT22;7652;53.584;9.998;2023-06-10T07:01:18;23.40;99.90
15103;DHT22;7652;53.584;9.998;2023-06-10T07:04:40;23.10;99.90
15103;DHT22;7652;53.584;9.998;2023-06-10T07:08:01;22.80;99.90
15103;DHT22;7652;53.584;9.998;2023-06-10T07:11:23;21.90;99.90
15103;DHT22;7652;53.584;9.998;2023-06-10T07:14:45;21.70;99.90
15103;DHT22;7652;53.584;9.998;2023-06-10T07:18:08;21.40;99.90
15103;DHT22;7652;53.584;9.998;2023-06-10T07:21:30;21.20;99.90
15103;DHT22;7652;53.584;9.998;2023-06-10T07:24:52;21.10;99.90
15103;DHT22;7652;53.584;9.998;2023-06-10T07:28:15;20.80;99.90
15103;DHT22;7652;53.584;9.998;2023-06-10T07:31:37;21.00;99.90
15103;DHT22;7652;53.584;9.998;2023-06-10T07:35:00;21.20;99.90
15103;DHT22;7652;53.584;9.998;2023-06-10T07:38:21;21.10;99.90
15103;DHT22;7652;53.584;9.998;2023-06-10T07:41:42;21.10;99.90
15103;DHT22;7652;53.584;9.998;2023-06-10T07:45:05;21.10;99.90
15103;DHT22;7652;53.584;9.998;2023-06-10T07:48:27;21.00;99.90
15103;DHT22;7652;53.584;9.998;2023-06-10T07:51:50;21.00;99.90
15103;DHT22;7652;53.584;9.998;2023-06-10T07:55:12;21.00;99.90
15103;DHT22;7652;53.584;9.998;2023-06-10T07:58:33;21.00;99.90
15103;DHT22;7652;53.584;9.998;2023-06-10T08:01:54;21.20;99.90
15103;DHT22;7652;53.584;9.998;2023-06-10T08:05:16;21.00;99.90
15103;DHT22;7652;53.584;9.998;2023-06-10T08:08:40;21.10;99.90
15103;DHT22;7652;53.584;9.998;2023-06-10T08:12:04;21.30;99.90
15103;DHT22;7652;53.584;9.998;2023-06-10T08:15:27;21.30;99.90
15103;DHT22;7652;53.584;9.998;2023-06-10T08:18:48;21.40;99.90
15103;DHT22;7652;53.584;9.998;2023-06-10T08:22:15;21.60;99.90
15103;DHT22;7652;53.584;9.998;2023-06-10T08:25:38;21.70;99.90
15103;DHT22;7652;53.584;9.998;2023-06-10T08:28:59;21.80;99.90
15103;DHT22;7652;53.584;9.998;2023-06-10T08:32:21;21.80;99.90
15103;DHT22;7652;53.584;9.998;2023-06-10T08:35:42;21.90;99.90
15103;DHT22;7652;53.584;9.998;2023-06-10T08:39:03;21.90;99.90
15103;DHT22;7652;53.584;9.998;2023-06-10T08:42:28;21.90;99.90
15103;DHT22;7652;53.584;9.998;2023-06-10T08:45:58;22.00;99.90
15103;DHT22;7652;53.584;9.998;2023-06-10T08:49:21;22.10;99.90
15103;DHT22;7652;53.584;9.998;2023-06-10T08:52:44;22.10;99.90
15103;DHT22;7652;53.584;9.998;2023-06-10T08:56:09;22.20;99.90
15103;DHT22;7652;53.584;9.998;2023-06-10T08:59:32;22.30;99.90
15103;DHT22;7652;53.584;9.998;2023-06-10T09:02:55;22.40;99.90
15103;DHT22;7652;53.584;9.998;2023-06-10T09:06:18;22.50;99.90
15103;DHT22;7652;53.584;9.998;2023-06-10T09:09:40;22.40;99.90
15103;DHT22;7652;53.584;9.998;2023-06-10T09:13:03;22.60;99.90
15103;DHT22;7652;53.584;9.998;2023-06-10T09:16:26;22.50;99.90
15103;DHT22;7652;53.584;9.998;2023-06-10T09:19:49;22.50;99.90
15103;DHT22;7652;53.584;9.998;2023-06-10T09:23:15;22.40;99.90
15103;DHT22;7652;53.584;9.998;2023-06-10T09:26:36;22.50;99.90
15103;DHT22;7652;53.584;9.998;2023-06-10T09:29:58;22.60;99.90
15103;DHT22;7652;53.584;9.998;2023-06-10T09:33:24;22.60;99.90
15103;DHT22;7652;53.584;9.998;2023-06-10T09:36:47;22.70;99.90
15103;DHT22;7652;53.584;9.998;2023-06-10T09:40:09;22.90;99.90
15103;DHT22;7652;53.584;9.998;2023-06-10T09:43:42;23.10;99.90
15103;DHT22;7652;53.584;9.998;2023-06-10T09:47:04;23.10;99.90
15103;DHT22;7652;53.584;9.998;2023-06-10T09:50:28;23.30;99.90
15103;DHT22;7652;53.584;9.998;2023-06-10T09:53:54;23.40;99.90
15103;DHT22;7652;53.584;9.998;2023-06-10T09:57:17;23.40;99.90
15103;DHT22;7652;53.584;9.998;2023-06-10T10:00:38;23.50;99.90
15103;DHT22;7652;53.584;9.998;2023-06-10T10:04:00;23.60;99.90
15103;DHT22;7652;53.584;9.998;2023-06-10T10:07:23;23.80;99.90
15103;DHT22;7652;53.584;9.998;2023-06-10T10:10:44;23.90;99.90
15103;DHT22;7652;53.584;9.998;2023-06-10T10:14:06;24.00;99.90
15103;DHT22;7652;53.584;9.998;2023-06-10T10:17:30;24.10;99.90
15103;DHT22;7652;53.584;9.998;2023-06-10T10:20:53;24.10;99.90
15103;DHT22;7652;53.584;9.998;2023-06-10T10:24:19;24.10;99.90
15103;DHT22;7652;53.584;9.998;2023-06-10T10:27:44;24.10;99.90
15103;DHT22;7652;53.584;9.998;2023-06-10T10:31:09;24.20;99.90
15103;DHT22;7652;53.584;9.998;2023-06-10T10:34:42;24.20;99.90
15103;DHT22;7652;53.584;9.998;2023-06-10T10:38:05;24.40;99.90
15103;DHT22;7652;53.584;9.998;2023-06-10T10:41:30;24.40;99.90
15103;DHT22;7652;53.584;9.998;2023-06-10T10:44:52;24.60;99.90
15103;DHT22;7652;53.584;9.998;2023-06-10T10:48:15;24.70;99.90
15103;DHT22;7652;53.584;9.998;2023-06-10T10:51:36;24.80;99.90
15103;DHT22;7652;53.584;9.998;2023-06-10T10:54:58;24.70;99.90
15103;DHT22;7652;53.584;9.998;2023-06-10T10:58:24;24.70;99.90
15103;DHT22;7652;53.584;9.998;2023-06-10T11:01:46;24.70;99.90
15103;DHT22;7652;53.584;9.998;2023-06-10T11:05:08;24.80;99.90
15103;DHT22;7652;53.584;9.998;2023-06-10T11:08:46;25.00;99.90
15103;DHT22;7652;53.584;9.998;2023-06-10T11:12:09;25.10;99.90
15103;DHT22;7652;53.584;9.998;2023-06-10T11:15:32;25.10;99.90
15103;DHT22;7652;53.584;9.998;2023-06-10T11:18:54;25.20;99.90
15103;DHT22;7652;53.584;9.998;2023-06-10T11:22:17;25.30;99.90
15103;DHT22;7652;53.584;9.998;2023-06-10T11:25:39;25.40;99.90
15103;DHT22;7652;53.584;9.998;2023-06-10T11:29:09;25.50;99.90
15103;DHT22;7652;53.584;9.998;2023-06-10T11:32:33;25.60;99.90
15103;DHT22;7652;53.584;9.998;2023-06-10T11:35:56;25.70;99.90
15103;DHT22;7652;53.584;9.998;2023-06-10T11:39:20;25.80;99.90
15103;DHT22;7652;53.584;9.998;2023-06-10T11:42:44;25.70;99.90
15103;DHT22;7652;53.584;9.998;2023-06-10T11:46:06;25.90;99.90
15103;DHT22;7652;53.584;9.998;2023-06-10T11:49:29;26.00;99.90
15103;DHT22;7652;53.584;9.998;2023-06-10T11:52:51;25.80;99.90
15103;DHT22;7652;53.584;9.998;2023-06-10T11:56:12;25.80;99.90
15103;DHT22;7652;53.584;9.998;2023-06-10T11:59:33;25.90;99.90
15103;DHT22;7652;53.584;9.998;2023-06-10T12:02:56;25.90;99.90
15103;DHT22;7652;53.584;9.998;2023-06-10T12:06:20;26.00;99.90
15103;DHT22;7652;53.584;9.998;2023-06-10T12:09:41;26.30;99.90
15103;DHT22;7652;53.584;9.998;2023-06-10T12:13:03;26.60;99.90
15103;DHT22;7652;53.584;9.998;2023-06-10T12:16:25;26.80;99.90
15103;DHT22;7652;53.584;9.998;2023-06-10T12:19:47;26.90;99.90
15103;DHT22;7652;53.584;9.998;2023-06-10T12:23:10;27.50;99.90
15103;DHT22;7652;53.584;9.998;2023-06-10T12:26:39;28.40;99.90
15103;DHT22;7652;53.584;9.998;2023-06-10T12:30:03;28.90;99.90
15103;DHT22;7652;53.584;9.998;2023-06-10T12:33:25;29.80;99.70
15103;DHT22;7652;53.584;9.998;2023-06-10T12:36:48;30.10;98.90
15103;DHT22;7652;53.584;9.998;2023-06-10T12:40:11;31.20;97.30
15103;DHT22;7652;53.584;9.998;2023-06-10T12:43:32;31.40;96.90
15103;DHT22;7652;53.584;9.998;2023-06-10T12:46:54;31.90;95.90
15103;DHT22;7652;53.584;9.998;2023-06-10T12:50:16;32.00;95.00
15103;DHT22;7652;53.584;9.998;2023-06-10T12:53:37;32.80;93.90
15103;DHT22;7652;53.584;9.998;2023-06-10T12:57:01;32.60;94.00
15103;DHT22;7652;53.584;9.998;2023-06-10T13:00:23;32.30;93.60
15103;DHT22;7652;53.584;9.998;2023-06-10T13:03:45;31.80;94.60
15103;DHT22;7652;53.584;9.998;2023-06-10T13:07:07;31.60;94.40
15103;DHT22;7652;53.584;9.998;2023-06-10T13:10:30;31.40;94.50
15103;DHT22;7652;53.584;9.998;2023-06-10T13:13:53;31.40;94.90
15103;DHT22;7652;53.584;9.998;2023-06-10T13:17:14;31.10;95.30
15103;DHT22;7652;53.584;9.998;2023-06-10T13:20:36;31.30;95.00
15103;DHT22;7652;53.584;9.998;2023-06-10T13:23:58;31.30;94.90
15103;DHT22;7652;53.584;9.998;2023-06-10T13:27:20;30.60;95.40
15103;DHT22;7652;53.584;9.998;2023-06-10T13:30:42;30.30;96.80
15103;DHT22;7652;53.584;9.998;2023-06-10T13:34:04;29.90;97.50
15103;DHT22;7652;53.584;9.998;2023-06-10T13:37:26;29.60;97.80
15103;DHT22;7652;53.584;9.998;2023-06-10T13:40:47;29.40;98.40
15103;DHT22;7652;53.584;9.998;2023-06-10T13:44:09;29.00;99.20
15103;DHT22;7652;53.584;9.998;2023-06-10T13:47:32;28.90;99.90
15103;DHT22;7652;53.584;9.998;2023-06-10T13:50:53;28.90;99.90
15103;DHT22;7652;53.584;9.998;2023-06-10T13:54:14;28.90;99.90
15103;DHT22;7652;53.584;9.998;2023-06-10T13:57:36;28.70;99.90
15103;DHT22;7652;53.584;9.998;2023-06-10T14:00:58;28.50;99.90
15103;DHT22;7652;53.584;9.998;2023-06-10T14:04:21;28.40;99.90
15103;DHT22;7652;53.584;9.998;2023-06-10T14:07:42;28.30;99.90
15103;DHT22;7652;53.584;9.998;2023-06-10T14:11:04;28.20;99.90
15103;DHT22;7652;53.584;9.998;2023-06-10T14:14:25;27.90;99.90
15103;DHT22;7652;53.584;9.998;2023-06-10T14:17:47;27.80;99.90
15103;DHT22;7652;53.584;9.998;2023-06-10T14:21:09;27.70;99.90
15103;DHT22;7652;53.584;9.998;2023-06-10T14:24:32;27.80;99.90
15103;DHT22;7652;53.584;9.998;2023-06-10T14:27:53;27.70;99.90
15103;DHT22;7652;53.584;9.998;2023-06-10T14:31:15;27.60;99.90
15103;DHT22;7652;53.584;9.998;2023-06-10T14:34:37;27.40;99.90
15103;DHT22;7652;53.584;9.998;2023-06-10T14:38:01;27.40;99.90
15103;DHT22;7652;53.584;9.998;2023-06-10T14:41:27;27.20;99.90
15103;DHT22;7652;53.584;9.998;2023-06-10T14:44:48;27.20;99.90
15103;DHT22;7652;53.584;9.998;2023-06-10T14:48:11;27.20;99.90
15103;DHT22;7652;53.584;9.998;2023-06-10T14:51:32;27.20;99.90
15103;DHT22;7652;53.584;9.998;2023-06-10T14:54:57;27.20;99.90
15103;DHT22;7652;53.584;9.998;2023-06-10T14:58:19;27.10;99.90
15103;DHT22;7652;53.584;9.998;2023-06-10T15:01:40;27.00;99.90
15103;DHT22;7652;53.584;9.998;2023-06-10T15:05:02;27.00;99.90
15103;DHT22;7652;53.584;9.998;2023-06-10T15:08:23;27.00;99.90
15103;DHT22;7652;53.584;9.998;2023-06-10T15:11:46;27.00;99.90
15103;DHT22;7652;53.584;9.998;2023-06-10T15:15:08;27.00;99.90
15103;DHT22;7652;53.584;9.998;2023-06-10T15:18:30;27.00;99.90
15103;DHT22;7652;53.584;9.998;2023-06-10T15:21:51;26.90;99.90
15103;DHT22;7652;53.584;9.998;2023-06-10T15:25:13;26.90;99.90
15103;DHT22;7652;53.584;9.998;2023-06-10T15:28:38;26.80;99.90
15103;DHT22;7652;53.584;9.998;2023-06-10T15:31:59;26.90;99.90
15103;DHT22;7652;53.584;9.998;2023-06-10T15:35:21;26.70;99.90
15103;DHT22;7652;53.584;9.998;2023-06-10T15:38:43;26.70;99.90
15103;DHT22;7652;53.584;9.998;2023-06-10T15:42:06;26.60;99.90
15103;DHT22;7652;53.584;9.998;2023-06-10T15:45:29;26.40;99.90
15103;DHT22;7652;53.584;9.998;2023-06-10T15:48:55;26.40;99.90
15103;DHT22;7652;53.584;9.998;2023-06-10T15:52:16;26.30;99.90
15103;DHT22;7652;53.584;9.998;2023-06-10T15:55:38;26.30;99.90
15103;DHT22;7652;53.584;9.998;2023-06-10T15:58:59;26.10;99.90
15103;DHT22;7652;53.584;9.998;2023-06-10T16:02:22;26.00;99.90
15103;DHT22;7652;53.584;9.998;2023-06-10T16:05:44;26.00;99.90
15103;DHT22;7652;53.584;9.998;2023-06-10T16:09:05;26.00;99.90
15103;DHT22;7652;53.584;9.998;2023-06-10T16:12:26;25.90;99.90
15103;DHT22;7652;53.584;9.998;2023-06-10T16:15:48;25.90;99.90
15103;DHT22;7652;53.584;9.998;2023-06-10T16:19:11;25.90;99.90
15103;DHT22;7652;53.584;9.998;2023-06-10T16:22:32;25.90;99.90
15103;DHT22;7652;53.584;9.998;2023-06-10T16:25:53;25.80;99.90
15103;DHT22;7652;53.584;9.998;2023-06-10T16:29:15;25.70;99.90
15103;DHT22;7652;53.584;9.998;2023-06-10T16:32:36;25.50;99.90
15103;DHT22;7652;53.584;9.998;2023-06-10T16:35:59;25.40;99.90
15103;DHT22;7652;53.584;9.998;2023-06-10T16:39:21;25.50;99.90
15103;DHT22;7652;53.584;9.998;2023-06-10T16:42:43;25.50;99.90
15103;DHT22;7652;53.584;9.998;2023-06-10T16:46:04;25.50;99.90
15103;DHT22;7652;53.584;9.998;2023-06-10T16:49:26;25.40;99.90
15103;DHT22;7652;53.584;9.998;2023-06-10T16:52:49;25.30;99.90
15103;DHT22;7652;53.584;9.998;2023-06-10T16:56:10;25.10;99.90
15103;DHT22;7652;53.584;9.998;2023-06-10T16:59:31;25.10;99.90
15103;DHT22;7652;53.584;9.998;2023-06-10T17:02:53;25.00;99.90
15103;DHT22;7652;53.584;9.998;2023-06-10T17:06:15;25.00;99.90
15103;DHT22;7652;53.584;9.998;2023-06-10T17:09:39;24.90;99.90
15103;DHT22;7652;53.584;9.998;2023-06-10T17:13:01;24.80;99.90
15103;DHT22;7652;53.584;9.998;2023-06-10T17:16:22;24.80;99.90
15103;DHT22;7652;53.584;9.998;2023-06-10T17:19:44;24.80;99.90
15103;DHT22;7652;53.584;9.998;2023-06-10T17:23:10;24.70;99.90
15103;DHT22;7652;53.584;9.998;2023-06-10T17:26:33;24.60;99.90
15103;DHT22;7652;53.584;9.998;2023-06-10T17:29:54;24.50;99.90
15103;DHT22;7652;53.584;9.998;2023-06-10T17:33:16;24.60;99.90
15103;DHT22;7652;53.584;9.998;2023-06-10T17:36:37;24.40;99.90
15103;DHT22;7652;53.584;9.998;2023-06-10T17:39:59;24.30;99.90
15103;DHT22;7652;53.584;9.998;2023-06-10T17:43:22;24.30;99.90
15103;DHT22;7652;53.584;9.998;2023-06-10T17:46:44;24.20;99.90
15103;DHT22;7652;53.584;9.998;2023-06-10T17:50:06;24.20;99.90
15103;DHT22;7652;53.584;9.998;2023-06-10T17:53:29;24.00;99.90
15103;DHT22;7652;53.584;9.998;2023-06-10T17:56:50;24.00;99.90
15103;DHT22;7652;53.584;9.998;2023-06-10T18:00:14;23.90;99.90
15103;DHT22;7652;53.584;9.998;2023-06-10T18:03:35;23.80;99.90
15103;DHT22;7652;53.584;9.998;2023-06-10T18:06:57;23.80;99.90
15103;DHT22;7652;53.584;9.998;2023-06-10T18:10:19;23.70;99.90
15103;DHT22;7652;53.584;9.998;2023-06-10T18:13:40;23.70;99.90
15103;DHT22;7652;53.584;9.998;2023-06-10T18:17:03;23.70;99.90
15103;DHT22;7652;53.584;9.998;2023-06-10T18:20:25;23.50;99.90
15103;DHT22;7652;53.584;9.998;2023-06-10T18:23:46;23.50;99.90
15103;DHT22;7652;53.584;9.998;2023-06-10T18:27:08;23.40;99.90
15103;DHT22;7652;53.584;9.998;2023-06-10T18:30:32;23.40;99.90
15103;DHT22;7652;53.584;9.998;2023-06-10T18:33:55;23.30;99.90
15103;DHT22;7652;53.584;9.998;2023-06-10T18:37:17;23.20;99.90
15103;DHT22;7652;53.584;9.998;2023-06-10T18:40:38;23.20;99.90
15103;DHT22;7652;53.584;9.998;2023-06-10T18:43:59;23.10;99.90
15103;DHT22;7652;53.584;9.998;2023-06-10T18:47:21;23.00;99.90
15103;DHT22;7652;53.584;9.998;2023-06-10T18:50:44;23.00;99.90
15103;DHT22;7652;53.584;9.998;2023-06-10T18:54:06;22.90;99.90
15103;DHT22;7652;53.584;9.998;2023-06-10T18:57:27;22.80;99.90
15103;DHT22;7652;53.584;9.998;2023-06-10T19:00:49;22.80;99.90
15103;DHT22;7652;53.584;9.998;2023-06-10T19:04:10;22.80;99.90
15103;DHT22;7652;53.584;9.998;2023-06-10T19:07:33;22.70;99.90
15103;DHT22;7652;53.584;9.998;2023-06-10T19:10:55;22.70;99.90
15103;DHT22;7652;53.584;9.998;2023-06-10T19:14:17;22.60;99.90
15103;DHT22;7652;53.584;9.998;2023-06-10T19:17:39;22.50;99.90
15103;DHT22;7652;53.584;9.998;2023-06-10T19:21:00;22.50;99.90
15103;DHT22;7652;53.584;9.998;2023-06-10T19:24:28;22.40;99.90
15103;DHT22;7652;53.584;9.998;2023-06-10T19:27:50;22.30;99.90
15103;DHT22;7652;53.584;9.998;2023-06-10T19:31:11;22.40;99.90
15103;DHT22;7652;53.584;9.998;2023-06-10T19:34:33;22.30;99.90
15103;DHT22;7652;53.584;9.998;2023-06-10T19:37:54;22.30;99.90
15103;DHT22;7652;53.584;9.998;2023-06-10T19:41:18;22.30;99.90
15103;DHT22;7652;53.584;9.998;2023-06-10T19:44:40;22.20;99.90
15103;DHT22;7652;53.584;9.998;2023-06-10T19:48:02;22.20;99.90
15103;DHT22;7652;53.584;9.998;2023-06-10T19:51:26;22.10;99.90
15103;DHT22;7652;53.584;9.998;2023-06-10T19:54:47;22.10;99.90
15103;DHT22;7652;53.584;9.998;2023-06-10T19:58:11;22.10;99.90
15103;DHT22;7652;53.584;9.998;2023-06-10T20:01:32;22.00;99.90
15103;DHT22;7652;53.584;9.998;2023-06-10T20:04:54;21.90;99.90
15103;DHT22;7652;53.584;9.998;2023-06-10T20:08:15;21.90;99.90
15103;DHT22;7652;53.584;9.998;2023-06-10T20:11:37;21.90;99.90
15103;DHT22;7652;53.584;9.998;2023-06-10T20:15:00;21.90;99.90
15103;DHT22;7652;53.584;9.998;2023-06-10T20:18:21;21.90;99.90
15103;DHT22;7652;53.584;9.998;2023-06-10T20:21:43;21.80;99.90
15103;DHT22;7652;53.584;9.998;2023-06-10T20:25:05;21.90;99.90
15103;DHT22;7652;53.584;9.998;2023-06-10T20:28:28;22.00;99.90
15103;DHT22;7652;53.584;9.998;2023-06-10T20:31:50;21.90;99.90
15103;DHT22;7652;53.584;9.998;2023-06-10T20:35:12;21.90;99.90
15103;DHT22;7652;53.584;9.998;2023-06-10T20:38:34;21.90;99.90
15103;DHT22;7652;53.584;9.998;2023-06-10T20:41:55;21.90;99.90
15103;DHT22;7652;53.584;9.998;2023-06-10T20:45:17;21.90;99.90
15103;DHT22;7652;53.584;9.998;2023-06-10T20:48:40;21.90;99.90
15103;DHT22;7652;53.584;9.998;2023-06-10T20:52:02;21.80;99.90
15103;DHT22;7652;53.584;9.998;2023-06-10T20:55:24;21.70;99.90
15103;DHT22;7652;53.584;9.998;2023-06-10T20:58:46;21.70;99.90
15103;DHT22;7652;53.584;9.998;2023-06-10T21:02:08;21.60;99.90
15103;DHT22;7652;53.584;9.998;2023-06-10T21:05:31;21.50;99.90
15103;DHT22;7652;53.584;9.998;2023-06-10T21:08:53;21.50;99.90
15103;DHT22;7652;53.584;9.998;2023-06-10T21:12:15;21.40;99.90
15103;DHT22;7652;53.584;9.998;2023-06-10T21:15:36;21.40;99.90
15103;DHT22;7652;53.584;9.998;2023-06-10T21:18:58;21.40;99.90
15103;DHT22;7652;53.584;9.998;2023-06-10T21:22:21;21.30;99.90
15103;DHT22;7652;53.584;9.998;2023-06-10T21:25:42;21.20;99.90
15103;DHT22;7652;53.584;9.998;2023-06-10T21:29:04;21.10;99.90
15103;DHT22;7652;53.584;9.998;2023-06-10T21:32:25;21.00;99.90
15103;DHT22;7652;53.584;9.998;2023-06-10T21:35:47;20.90;99.90
15103;DHT22;7652;53.584;9.998;2023-06-10T21:39:10;20.80;99.90